Hauptseite
METAR-TAF:

METAR-TAF

Flughäfen :

Flughafen Parma

Parma, Italien

Breite: 44-49-17N, Länge: 010-17-41E, Höhe: 50 m

Beobachtung

Neuester Wetterbericht von vor 1 Stunde und 17 Minuten, um 17:50 UTC
Wind 5 kt aus Nordost, variierte zwischen Nord/Nordost und Ost
Temperatur 6°C
Luftfeuchtigkeit 93%
Luftdruck 1013 hPa
Sichtweite: 2000 m
Durchbrochene Bewölkung in der Höhe von 1000 ft
Regen,

METAR: LIMP 221750Z 04005KT 020V090 2000 RA BKN010 06/05 Q1013

Zeit: 21:07 (19:07 UTC)

Prognose

Neuester Wetterbericht von vor 2 Stunden und 7 Minuten, um 17:00 UTC
Gültige Prognose vom 22 um 18 UTC bis 23 um 18 UTC
Wind 5 kt aus unterschiedlichen Richtungen
Sichtweite: 4000 m
Durchbrochene Bewölkung in der Höhe von 1000 ft
Regen,

TAF: LIMP 221700Z 2218/2318 VRB05KT 4000 RA BKN010

Wetterbeobachtungen und Prognosen von mehr als 4000 Flughäfen (METAR und TAF Bericht).

Die verfügbaren Stationen werden durch gelbe und rote Markierungen auf der Karte dargestellt.

Führen Sie die Maus auf sie, um den Namen der Station zu sehen.

Darauf klicken, um die Beobachtung von Wetterbeobachtungen und Prognosen zu sehen.

Um die Karte zu ändern : klicken Sie auf den grünen Tasten mit einem schwarzen Kreuz Zum Vergrößern, auf den grünen Button mit einem Gedankenstrich zu verkleinern, oder auf die grünen Pfeile für benachbarte Karten.


METAR-TAF: